Time;durP1;ratioP1;P1;durP2;ratioP2;P2;SDS_P1;SDS_P2;PMS_P1;PMS_P2;Temp;Humidity;BMP_temperature;BMP_pressure;BME280_temperature;BME280_humidity;BME280_pressure;Samples;Min_cycle;Max_cycle;Signal;HPM_P1;HPM_P2
2024/01/01 00:00:22;;;;;;;;;;;19.40;54.20;;;;;;7400401;19;1605;-76
2024/01/01 00:02:47;;;;;;;;;;;19.30;54.30;;;;;;7394972;19;4987;-74
2024/01/01 00:05:13;;;;;;;;;;;19.30;54.40;;;;;;7391928;19;4105;-75
2024/01/01 00:07:38;;;;;;;;;;;19.30;54.80;;;;;;7395848;19;4001;-76
2024/01/01 00:10:04;;;;;;;;;;;19.30;54.40;;;;;;7391450;19;3744;-74
2024/01/01 00:12:30;;;;;;;;;;;19.30;55.40;;;;;;7393252;19;4497;-73
2024/01/01 00:14:56;;;;;;;;;;;19.30;55.20;;;;;;7396555;19;4600;-75
2024/01/01 00:17:21;;;;;;;;;;;19.20;54.60;;;;;;7395559;19;3716;-76
2024/01/01 00:19:46;;;;;;;;;;;19.10;54.50;;;;;;7395407;19;4323;-75
2024/01/01 00:22:12;;;;;;;;;;;19.10;54.50;;;;;;7398507;19;3291;-75
2024/01/01 00:24:37;;;;;;;;;;;19.00;54.50;;;;;;7395637;19;3971;-75
2024/01/01 00:27:03;;;;;;;;;;;19.00;54.50;;;;;;7394494;19;1833;-75
2024/01/01 00:29:28;;;;;;;;;;;19.00;54.70;;;;;;7397870;19;1398;-75
2024/01/01 00:31:54;;;;;;;;;;;18.90;54.70;;;;;;7392958;19;4317;-75
2024/01/01 00:34:20;;;;;;;;;;;18.90;55.20;;;;;;7398077;19;2813;-75
2024/01/01 00:36:45;;;;;;;;;;;18.80;55.10;;;;;;7397192;19;1550;-75
2024/01/01 00:39:11;;;;;;;;;;;18.80;55.40;;;;;;7396320;19;4930;-75
2024/01/01 00:41:36;;;;;;;;;;;18.80;55.50;;;;;;7394594;19;4478;-75
2024/01/01 00:44:02;;;;;;;;;;;18.80;55.30;;;;;;7396686;19;4055;-75
2024/01/01 00:46:28;;;;;;;;;;;18.70;55.40;;;;;;7395042;19;5291;-75
2024/01/01 00:48:53;;;;;;;;;;;18.70;55.40;;;;;;7398634;19;1577;-75
2024/01/01 00:51:19;;;;;;;;;;;18.70;55.70;;;;;;7395628;19;4514;-75
2024/01/01 00:53:44;;;;;;;;;;;18.70;55.80;;;;;;7395281;19;4013;-75
2024/01/01 00:56:09;;;;;;;;;;;18.60;55.90;;;;;;7397770;19;2748;-75
2024/01/01 00:58:35;;;;;;;;;;;18.60;55.80;;;;;;7395801;19;1279;-75
2024/01/01 01:01:02;;;;;;;;;;;18.50;55.80;;;;;;7395095;19;5300;-75
2024/01/01 01:03:28;;;;;;;;;;;18.50;56.00;;;;;;7391390;19;4762;-75
2024/01/01 01:05:54;;;;;;;;;;;18.50;56.00;;;;;;7393610;19;3976;-75
2024/01/01 01:08:19;;;;;;;;;;;18.40;56.70;;;;;;7394615;19;3535;-75
2024/01/01 01:10:45;;;;;;;;;;;18.50;56.30;;;;;;7394386;19;1526;-75
2024/01/01 01:13:10;;;;;;;;;;;18.40;56.70;;;;;;7395255;19;4875;-75
2024/01/01 01:15:36;;;;;;;;;;;18.40;56.30;;;;;;7394994;19;3457;-75
2024/01/01 01:18:01;;;;;;;;;;;18.40;56.50;;;;;;7396205;19;3560;-75
2024/01/01 01:20:27;;;;;;;;;;;18.40;56.30;;;;;;7395071;19;4492;-76
2024/01/01 01:22:52;;;;;;;;;;;18.30;56.80;;;;;;7394666;19;3589;-75
2024/01/01 01:25:18;;;;;;;;;;;18.30;56.80;;;;;;7394366;19;4439;-75
2024/01/01 01:27:43;;;;;;;;;;;18.30;56.70;;;;;;7394948;19;3454;-75
2024/01/01 01:30:09;;;;;;;;;;;18.30;56.50;;;;;;7395702;19;3047;-74
2024/01/01 01:32:34;;;;;;;;;;;18.30;57.20;;;;;;7395933;19;1519;-75
2024/01/01 01:35:00;;;;;;;;;;;18.20;56.90;;;;;;7393898;19;4822;-75
2024/01/01 01:37:25;;;;;;;;;;;18.20;57.40;;;;;;7396212;19;2681;-74
2024/01/01 01:39:51;;;;;;;;;;;18.20;56.70;;;;;;7393676;19;3604;-75
2024/01/01 01:42:16;;;;;;;;;;;18.20;57.80;;;;;;7390418;19;4447;-75
2024/01/01 01:44:41;;;;;;;;;;;18.20;57.40;;;;;;7391550;19;4481;-75
2024/01/01 01:47:07;;;;;;;;;;;18.10;57.00;;;;;;7394084;19;4819;-75
2024/01/01 01:49:32;;;;;;;;;;;18.10;57.10;;;;;;7392036;19;4874;-75
2024/01/01 01:51:58;;;;;;;;;;;18.10;57.10;;;;;;7392491;19;4502;-75
2024/01/01 01:54:24;;;;;;;;;;;18.00;57.20;;;;;;7396756;19;3095;-75
2024/01/01 01:56:49;;;;;;;;;;;18.00;58.00;;;;;;7394702;19;3761;-75
2024/01/01 01:59:15;;;;;;;;;;;17.90;57.20;;;;;;7396353;19;4262;-75
2024/01/01 02:01:40;;;;;;;;;;;18.00;57.40;;;;;;7396240;19;4456;-74
2024/01/01 02:04:05;;;;;;;;;;;17.90;57.40;;;;;;7393806;19;3669;-74
2024/01/01 02:06:31;;;;;;;;;;;17.90;57.80;;;;;;7394163;19;2433;-75
2024/01/01 02:08:56;;;;;;;;;;;17.80;57.80;;;;;;7392096;19;5179;-75
2024/01/01 02:11:22;;;;;;;;;;;17.80;57.80;;;;;;7392654;19;3626;-75
2024/01/01 02:13:47;;;;;;;;;;;17.80;57.60;;;;;;7395824;19;1351;-75
2024/01/01 02:16:13;;;;;;;;;;;17.80;57.30;;;;;;7397422;19;1392;-75
2024/01/01 02:18:40;;;;;;;;;;;17.90;57.20;;;;;;7390877;19;3589;-75
2024/01/01 02:21:05;;;;;;;;;;;17.90;57.20;;;;;;7397071;19;3123;-75
2024/01/01 02:23:31;;;;;;;;;;;17.90;57.00;;;;;;7396183;19;1649;-75
2024/01/01 02:25:56;;;;;;;;;;;18.00;57.00;;;;;;7392530;19;4271;-75
2024/01/01 02:28:22;;;;;;;;;;;18.00;56.60;;;;;;7396057;19;2805;-74
2024/01/01 02:30:47;;;;;;;;;;;18.10;56.50;;;;;;7393526;19;1765;-75
2024/01/01 02:33:14;;;;;;;;;;;18.20;56.30;;;;;;7391928;19;4283;-75
2024/01/01 02:35:39;;;;;;;;;;;18.20;56.10;;;;;;7392041;19;4414;-75
2024/01/01 02:38:07;;;;;;;;;;;18.30;55.90;;;;;;7392229;19;4569;-75
2024/01/01 02:40:36;;;;;;;;;;;18.40;55.70;;;;;;7390369;19;4904;-75
2024/01/01 02:43:02;;;;;;;;;;;18.40;55.50;;;;;;7392229;19;4522;-75
2024/01/01 02:45:30;;;;;;;;;;;18.50;55.40;;;;;;7391118;19;5640;-75
2024/01/01 02:47:56;;;;;;;;;;;18.50;55.30;;;;;;7390728;19;4380;-75
2024/01/01 02:50:22;;;;;;;;;;;18.60;55.20;;;;;;7392760;19;4440;-75
2024/01/01 02:52:48;;;;;;;;;;;18.60;55.20;;;;;;7390599;19;4439;-74
2024/01/01 02:55:13;;;;;;;;;;;18.70;55.10;;;;;;7392057;19;4930;-75
2024/01/01 02:57:38;;;;;;;;;;;18.70;55.00;;;;;;7393640;19;1251;-75
2024/01/01 03:00:04;;;;;;;;;;;18.70;55.00;;;;;;7394107;19;3146;-75
2024/01/01 03:02:30;;;;;;;;;;;18.70;54.80;;;;;;7392107;19;5122;-75
2024/01/01 03:04:55;;;;;;;;;;;18.70;55.00;;;;;;7394592;19;1466;-75
2024/01/01 03:07:21;;;;;;;;;;;18.70;54.90;;;;;;7392147;19;1860;-75
2024/01/01 03:09:46;;;;;;;;;;;18.70;54.90;;;;;;7388589;19;4504;-75
2024/01/01 03:12:12;;;;;;;;;;;18.70;55.00;;;;;;7393340;19;1946;-75
2024/01/01 03:14:37;;;;;;;;;;;18.70;55.00;;;;;;7392408;19;1459;-75
2024/01/01 03:17:03;;;;;;;;;;;18.70;55.00;;;;;;7398987;19;4518;-75
2024/01/01 03:19:28;;;;;;;;;;;18.70;55.00;;;;;;7399967;19;1568;-75
2024/01/01 03:21:53;;;;;;;;;;;18.70;55.10;;;;;;7401427;19;1387;-74
2024/01/01 03:24:19;;;;;;;;;;;18.60;55.20;;;;;;7401905;19;4509;-76
2024/01/01 03:26:44;;;;;;;;;;;18.50;55.20;;;;;;7396730;19;1827;-75
2024/01/01 03:29:10;;;;;;;;;;;18.50;55.30;;;;;;7399670;19;1331;-75
2024/01/01 03:31:35;;;;;;;;;;;18.40;55.30;;;;;;7397257;19;3855;-75
2024/01/01 03:34:01;;;;;;;;;;;18.40;55.20;;;;;;7400401;19;1583;-75
2024/01/01 03:36:26;;;;;;;;;;;18.40;55.40;;;;;;7396910;19;1893;-75
2024/01/01 03:38:52;;;;;;;;;;;18.30;55.40;;;;;;7398759;19;3030;-75
2024/01/01 03:41:17;;;;;;;;;;;18.30;55.50;;;;;;7400144;19;1523;-75
2024/01/01 03:43:42;;;;;;;;;;;18.30;55.60;;;;;;7398563;19;4458;-75
2024/01/01 03:46:08;;;;;;;;;;;18.20;55.60;;;;;;7396651;19;3475;-75
2024/01/01 03:48:33;;;;;;;;;;;18.20;55.50;;;;;;7397626;19;1346;-75
2024/01/01 03:50:59;;;;;;;;;;;18.20;55.60;;;;;;7399823;19;2980;-75
2024/01/01 03:53:24;;;;;;;;;;;18.20;55.60;;;;;;7398858;19;5088;-75
2024/01/01 03:55:50;;;;;;;;;;;18.10;55.60;;;;;;7400840;19;1316;-75
2024/01/01 03:58:15;;;;;;;;;;;18.10;55.50;;;;;;7399876;19;1516;-75
2024/01/01 04:00:40;;;;;;;;;;;18.10;55.50;;;;;;7396341;19;3852;-75
2024/01/01 04:03:06;;;;;;;;;;;18.10;55.40;;;;;;7399015;19;2629;-75
2024/01/01 04:05:31;;;;;;;;;;;18.10;55.40;;;;;;7400819;19;1837;-75
2024/01/01 04:07:57;;;;;;;;;;;18.10;55.40;;;;;;7397332;19;3750;-75
2024/01/01 04:10:22;;;;;;;;;;;18.10;55.30;;;;;;7397048;19;4399;-75
2024/01/01 04:12:48;;;;;;;;;;;18.10;55.20;;;;;;7397437;19;4161;-75
2024/01/01 04:15:13;;;;;;;;;;;18.10;55.10;;;;;;7395086;19;4486;-75
2024/01/01 04:17:38;;;;;;;;;;;18.20;55.20;;;;;;7398949;19;1615;-75
2024/01/01 04:20:10;;;;;;;;;;;18.20;55.00;;;;;;7397470;19;4263;-75
2024/01/01 04:22:40;;;;;;;;;;;18.20;55.10;;;;;;7396904;19;3714;-75
2024/01/01 04:25:06;;;;;;;;;;;18.20;55.00;;;;;;7397654;19;3020;-75
2024/01/01 04:27:31;;;;;;;;;;;18.20;54.90;;;;;;7394537;19;1829;-75
2024/01/01 04:29:57;;;;;;;;;;;18.20;54.90;;;;;;7396489;19;3817;-75
2024/01/01 04:32:24;;;;;;;;;;;18.20;55.00;;;;;;7398153;19;1695;-75
2024/01/01 04:34:50;;;;;;;;;;;18.20;54.90;;;;;;7396599;19;4490;-75
2024/01/01 04:37:15;;;;;;;;;;;18.30;54.90;;;;;;7395477;19;4318;-75
2024/01/01 04:39:41;;;;;;;;;;;18.20;54.70;;;;;;7400466;19;1308;-75
2024/01/01 04:42:06;;;;;;;;;;;18.20;54.90;;;;;;7396269;19;4597;-75
2024/01/01 04:44:32;;;;;;;;;;;18.20;54.90;;;;;;7391011;19;4350;-75
2024/01/01 04:46:57;;;;;;;;;;;18.20;54.80;;;;;;7397845;19;3428;-74
2024/01/01 04:49:23;;;;;;;;;;;18.20;54.80;;;;;;7400523;19;1678;-75
2024/01/01 04:51:48;;;;;;;;;;;18.20;54.90;;;;;;7394670;19;4915;-75
2024/01/01 04:54:14;;;;;;;;;;;18.20;55.00;;;;;;7393957;19;4469;-74
2024/01/01 04:56:39;;;;;;;;;;;18.20;54.90;;;;;;7398332;19;2968;-75
2024/01/01 04:59:06;;;;;;;;;;;18.10;54.80;;;;;;7395583;19;4001;-75
2024/01/01 05:01:32;;;;;;;;;;;18.10;54.90;;;;;;7393886;19;5001;-74
2024/01/01 05:03:57;;;;;;;;;;;18.10;54.90;;;;;;7388276;19;4767;-75
2024/01/01 05:06:22;;;;;;;;;;;18.10;55.00;;;;;;7394243;19;4854;-74
2024/01/01 05:08:48;;;;;;;;;;;18.10;55.00;;;;;;7396037;19;1651;-75
2024/01/01 05:11:13;;;;;;;;;;;18.10;55.10;;;;;;7396794;19;1431;-75
2024/01/01 05:13:39;;;;;;;;;;;18.10;55.10;;;;;;7395459;19;4250;-75
2024/01/01 05:16:08;;;;;;;;;;;18.00;54.80;;;;;;7397005;19;1567;-75
2024/01/01 05:18:33;;;;;;;;;;;18.00;55.00;;;;;;7394035;19;4970;-74
2024/01/01 05:20:59;;;;;;;;;;;18.00;54.90;;;;;;7394526;19;3642;-75
2024/01/01 05:23:24;;;;;;;;;;;18.00;54.90;;;;;;7396851;19;1607;-75
2024/01/01 05:25:49;;;;;;;;;;;18.00;55.00;;;;;;7395336;19;4245;-74
2024/01/01 05:28:15;;;;;;;;;;;18.00;54.90;;;;;;7392042;19;4408;-75
2024/01/01 05:30:40;;;;;;;;;;;17.90;54.80;;;;;;7393373;19;6238;-75
2024/01/01 05:33:06;;;;;;;;;;;17.90;54.80;;;;;;7392768;19;4541;-75
2024/01/01 05:35:31;;;;;;;;;;;17.90;54.90;;;;;;7395421;19;4700;-75
2024/01/01 05:37:56;;;;;;;;;;;17.90;54.90;;;;;;7392599;19;1878;-75
2024/01/01 05:40:22;;;;;;;;;;;17.90;54.80;;;;;;7398192;19;1508;-75
2024/01/01 05:42:48;;;;;;;;;;;17.90;54.80;;;;;;7394058;19;5361;-75
2024/01/01 05:45:13;;;;;;;;;;;17.90;54.80;;;;;;7393948;19;4422;-74
2024/01/01 05:47:38;;;;;;;;;;;17.90;54.70;;;;;;7393539;19;3456;-75
2024/01/01 05:50:04;;;;;;;;;;;17.90;54.60;;;;;;7395503;19;4577;-75
2024/01/01 05:52:30;;;;;;;;;;;18.00;54.70;;;;;;7395522;19;1520;-74
2024/01/01 05:54:55;;;;;;;;;;;18.00;54.70;;;;;;7394415;19;1507;-75
2024/01/01 05:57:20;;;;;;;;;;;18.00;54.60;;;;;;7394645;19;2830;-75
2024/01/01 05:59:46;;;;;;;;;;;18.00;54.60;;;;;;7395444;19;1354;-75
2024/01/01 06:02:11;;;;;;;;;;;18.00;54.60;;;;;;7395607;19;1513;-75
2024/01/01 06:04:37;;;;;;;;;;;18.00;54.60;;;;;;7394765;19;4235;-75
2024/01/01 06:07:02;;;;;;;;;;;18.00;54.50;;;;;;7394273;19;1815;-75
2024/01/01 06:09:28;;;;;;;;;;;18.00;54.30;;;;;;7392975;19;5258;-74
2024/01/01 06:11:53;;;;;;;;;;;18.10;54.40;;;;;;7395069;19;3209;-75
2024/01/01 06:14:19;;;;;;;;;;;18.00;54.40;;;;;;7396310;19;1376;-74
2024/01/01 06:16:44;;;;;;;;;;;18.00;55.10;;;;;;7393306;19;3694;-75
2024/01/01 06:19:10;;;;;;;;;;;18.00;54.40;;;;;;7395748;19;3298;-75
2024/01/01 06:21:35;;;;;;;;;;;18.00;54.30;;;;;;7394533;19;1554;-75
2024/01/01 06:24:01;;;;;;;;;;;18.00;54.40;;;;;;7393515;19;5178;-75
2024/01/01 06:26:26;;;;;;;;;;;18.00;54.40;;;;;;7393086;19;2890;-75
2024/01/01 06:28:52;;;;;;;;;;;18.00;54.50;;;;;;7397345;19;1367;-75
2024/01/01 06:31:17;;;;;;;;;;;17.90;54.40;;;;;;7393133;19;2865;-75
2024/01/01 06:33:42;;;;;;;;;;;17.90;54.30;;;;;;7391818;19;4144;-75
2024/01/01 06:36:08;;;;;;;;;;;17.90;54.40;;;;;;7393685;19;4510;-75
2024/01/01 06:38:34;;;;;;;;;;;17.90;54.40;;;;;;7392171;19;4830;-74
2024/01/01 06:41:00;;;;;;;;;;;17.90;54.50;;;;;;7393088;19;4302;-75
2024/01/01 06:43:25;;;;;;;;;;;17.80;54.40;;;;;;7392182;19;4460;-75
2024/01/01 06:45:51;;;;;;;;;;;17.80;54.50;;;;;;7392497;19;5197;-75
2024/01/01 06:48:16;;;;;;;;;;;17.80;54.60;;;;;;7392850;19;4274;-75
2024/01/01 06:50:42;;;;;;;;;;;17.80;54.50;;;;;;7398733;19;4772;-75
2024/01/01 06:53:10;;;;;;;;;;;17.80;54.40;;;;;;7398073;19;4364;-75
2024/01/01 06:55:35;;;;;;;;;;;17.80;55.00;;;;;;7397692;19;4464;-75
2024/01/01 06:58:01;;;;;;;;;;;17.80;54.40;;;;;;7397181;19;4438;-74
2024/01/01 07:00:26;;;;;;;;;;;17.80;54.40;;;;;;7392144;19;4997;-75
2024/01/01 07:02:52;;;;;;;;;;;17.80;54.40;;;;;;7397998;19;3301;-75
2024/01/01 07:05:17;;;;;;;;;;;17.80;54.40;;;;;;7401661;19;2716;-75
2024/01/01 07:07:43;;;;;;;;;;;17.80;54.40;;;;;;7395864;19;4375;-75
2024/01/01 07:10:09;;;;;;;;;;;17.80;54.40;;;;;;7397989;19;4368;-75
2024/01/01 07:12:34;;;;;;;;;;;17.80;54.30;;;;;;7397629;19;3511;-75
2024/01/01 07:15:01;;;;;;;;;;;17.80;54.40;;;;;;7399417;19;4038;-74
2024/01/01 07:17:27;;;;;;;;;;;17.80;54.50;;;;;;7400470;19;1684;-75
2024/01/01 07:19:52;;;;;;;;;;;17.80;54.40;;;;;;7399428;19;3662;-75
2024/01/01 07:22:18;;;;;;;;;;;17.80;54.30;;;;;;7397385;19;3876;-74
2024/01/01 07:24:43;;;;;;;;;;;17.80;54.30;;;;;;7400837;19;2988;-75
2024/01/01 07:27:09;;;;;;;;;;;17.80;54.30;;;;;;7399440;19;1849;-74
2024/01/01 07:29:34;;;;;;;;;;;17.70;54.40;;;;;;7400018;19;5033;-75
2024/01/01 07:31:59;;;;;;;;;;;17.70;54.40;;;;;;7400379;19;1746;-74
2024/01/01 07:34:26;;;;;;;;;;;17.70;54.50;;;;;;7397950;19;1337;-75
2024/01/01 07:36:51;;;;;;;;;;;17.70;54.50;;;;;;7395975;19;4179;-75
2024/01/01 07:39:20;;;;;;;;;;;17.70;54.50;;;;;;7398088;19;1865;-75
2024/01/01 07:41:46;;;;;;;;;;;17.70;54.40;;;;;;7401026;19;1285;-75
2024/01/01 07:44:11;;;;;;;;;;;17.70;54.40;;;;;;7398754;19;4249;-75
2024/01/01 07:46:36;;;;;;;;;;;17.70;54.30;;;;;;7398489;19;1985;-75
2024/01/01 07:49:04;;;;;;;;;;;17.80;54.40;;;;;;7397730;19;1572;-75
2024/01/01 07:51:29;;;;;;;;;;;17.70;54.20;;;;;;7398185;19;3730;-75
2024/01/01 07:53:54;;;;;;;;;;;17.80;54.30;;;;;;7400311;19;1529;-75
2024/01/01 07:56:20;;;;;;;;;;;17.80;54.40;;;;;;7401040;19;1425;-75
2024/01/01 07:58:45;;;;;;;;;;;17.80;54.20;;;;;;7396607;19;3836;-75
2024/01/01 08:01:11;;;;;;;;;;;17.80;54.30;;;;;;7395831;19;4911;-75
2024/01/01 08:03:36;;;;;;;;;;;17.80;54.30;;;;;;7397503;19;2623;-75
2024/01/01 08:06:02;;;;;;;;;;;17.70;54.20;;;;;;7398208;19;3512;-75
2024/01/01 08:08:27;;;;;;;;;;;17.70;54.20;;;;;;7398910;19;1582;-74
2024/01/01 08:10:55;;;;;;;;;;;17.80;54.30;;;;;;7395509;19;3659;-74
2024/01/01 08:13:21;;;;;;;;;;;17.70;54.20;;;;;;7393488;19;4162;-75
2024/01/01 08:15:46;;;;;;;;;;;17.80;54.30;;;;;;7399455;19;3057;-75
2024/01/01 08:18:12;;;;;;;;;;;17.80;54.20;;;;;;7398581;19;1863;-75
2024/01/01 08:20:37;;;;;;;;;;;17.80;54.20;;;;;;7398264;19;3858;-75
2024/01/01 08:23:03;;;;;;;;;;;17.80;54.30;;;;;;7398299;19;2030;-75
2024/01/01 08:25:28;;;;;;;;;;;17.80;54.30;;;;;;7396457;19;4409;-75
2024/01/01 08:27:54;;;;;;;;;;;17.80;54.20;;;;;;7395806;19;5240;-74
2024/01/01 08:30:19;;;;;;;;;;;17.70;54.20;;;;;;7395235;19;4227;-75
2024/01/01 08:32:44;;;;;;;;;;;17.70;54.30;;;;;;7396145;19;4489;-75
2024/01/01 08:35:10;;;;;;;;;;;17.70;54.20;;;;;;7395786;19;4773;-75
2024/01/01 08:37:35;;;;;;;;;;;17.60;54.30;;;;;;7397577;19;3012;-75
2024/01/01 08:40:01;;;;;;;;;;;17.60;54.40;;;;;;7396736;19;4442;-75
2024/01/01 08:42:26;;;;;;;;;;;17.60;54.30;;;;;;7394815;19;2934;-75
2024/01/01 08:44:52;;;;;;;;;;;17.60;54.30;;;;;;7396450;19;4519;-75
2024/01/01 08:47:17;;;;;;;;;;;17.60;54.40;;;;;;7397971;19;3166;-75
2024/01/01 08:49:43;;;;;;;;;;;17.60;54.30;;;;;;7395789;19;3871;-75
2024/01/01 08:52:08;;;;;;;;;;;17.60;54.40;;;;;;7395020;19;6242;-75
2024/01/01 08:54:33;;;;;;;;;;;17.60;54.40;;;;;;7398646;19;2644;-74
2024/01/01 08:56:59;;;;;;;;;;;17.50;54.30;;;;;;7393919;19;4895;-75
2024/01/01 08:59:24;;;;;;;;;;;17.60;54.40;;;;;;7397338;19;1503;-75
2024/01/01 09:01:50;;;;;;;;;;;17.40;55.00;;;;;;7395948;19;6286;-74
2024/01/01 09:04:17;;;;;;;;;;;17.50;54.40;;;;;;7392532;19;4315;-75
2024/01/01 09:06:43;;;;;;;;;;;17.40;54.30;;;;;;7393165;19;4521;-75
2024/01/01 09:09:09;;;;;;;;;;;17.40;54.20;;;;;;7394449;19;4858;-75
2024/01/01 09:11:35;;;;;;;;;;;17.40;54.20;;;;;;7392859;19;4726;-74
2024/01/01 09:14:00;;;;;;;;;;;17.40;54.30;;;;;;7397701;19;3331;-74
2024/01/01 09:16:29;;;;;;;;;;;17.40;54.20;;;;;;7397260;19;1491;-75
2024/01/01 09:18:59;;;;;;;;;;;17.50;54.20;;;;;;7393831;19;4341;-75
2024/01/01 09:21:26;;;;;;;;;;;17.50;54.10;;;;;;7391003;19;4883;-74
2024/01/01 09:23:52;;;;;;;;;;;17.50;54.00;;;;;;7396076;19;4454;-74
2024/01/01 09:26:17;;;;;;;;;;;17.50;53.90;;;;;;7389882;19;4273;-74
2024/01/01 09:28:43;;;;;;;;;;;17.50;53.90;;;;;;7398555;19;3375;-74
2024/01/01 09:31:08;;;;;;;;;;;17.50;54.00;;;;;;7394690;19;2777;-74
2024/01/01 09:33:33;;;;;;;;;;;17.50;54.00;;;;;;7392942;19;4269;-73
2024/01/01 09:35:59;;;;;;;;;;;17.50;53.90;;;;;;7396183;19;1410;-74
2024/01/01 09:38:24;;;;;;;;;;;17.50;53.80;;;;;;7394540;19;1212;-75
2024/01/01 09:40:53;;;;;;;;;;;17.60;53.80;;;;;;7391529;19;5278;-75
2024/01/01 09:43:18;;;;;;;;;;;17.60;53.70;;;;;;7395137;19;1690;-75
2024/01/01 09:45:46;;;;;;;;;;;17.60;53.70;;;;;;7395244;19;4877;-75
2024/01/01 09:48:11;;;;;;;;;;;17.60;53.70;;;;;;7393412;19;4512;-75
2024/01/01 09:50:37;;;;;;;;;;;17.60;53.70;;;;;;7391638;19;5204;-74
2024/01/01 09:53:02;;;;;;;;;;;17.50;53.70;;;;;;7395600;19;1974;-74
2024/01/01 09:55:29;;;;;;;;;;;17.50;53.90;;;;;;7393436;19;4042;-74
2024/01/01 09:57:55;;;;;;;;;;;17.50;53.70;;;;;;7395368;19;1378;-74
2024/01/01 10:00:21;;;;;;;;;;;17.50;53.80;;;;;;7397161;19;1699;-75
2024/01/01 10:02:46;;;;;;;;;;;17.50;54.40;;;;;;7393439;19;5215;-75
2024/01/01 10:05:12;;;;;;;;;;;17.50;53.70;;;;;;7393092;19;3142;-74
2024/01/01 10:07:38;;;;;;;;;;;17.50;53.80;;;;;;7392660;19;3763;-74
2024/01/01 10:10:03;;;;;;;;;;;17.50;53.80;;;;;;7394403;19;3033;-74
2024/01/01 10:12:29;;;;;;;;;;;17.50;53.90;;;;;;7391511;19;3849;-74
2024/01/01 10:14:56;;;;;;;;;;;17.40;53.90;;;;;;7395442;19;3884;-74
2024/01/01 10:17:21;;;;;;;;;;;17.40;53.90;;;;;;7394247;19;3825;-75
2024/01/01 10:19:55;;;;;;;;;;;17.40;53.90;;;;;;7393965;19;1597;-74
2024/01/01 10:22:20;;;;;;;;;;;17.40;53.90;;;;;;7387501;19;4134;-74
2024/01/01 10:24:46;;;;;;;;;;;17.40;54.00;;;;;;7394458;19;4526;-74
2024/01/01 10:27:13;;;;;;;;;;;17.40;54.00;;;;;;7399828;19;3086;-74
2024/01/01 10:29:38;;;;;;;;;;;17.40;54.00;;;;;;7401280;19;3488;-75
2024/01/01 10:32:04;;;;;;;;;;;17.40;54.00;;;;;;7398474;19;1535;-74
2024/01/01 10:34:31;;;;;;;;;;;17.40;53.90;;;;;;7395987;19;1347;-75
2024/01/01 10:36:56;;;;;;;;;;;17.40;54.00;;;;;;7396014;19;4169;-74
2024/01/01 10:39:22;;;;;;;;;;;17.40;53.90;;;;;;7400484;19;3211;-75
2024/01/01 10:41:51;;;;;;;;;;;17.40;53.80;;;;;;7397961;19;1499;-75
2024/01/01 10:44:16;;;;;;;;;;;17.40;53.70;;;;;;7394077;19;5981;-75
2024/01/01 10:46:44;;;;;;;;;;;17.40;53.60;;;;;;7399857;19;2887;-75
2024/01/01 10:49:11;;;;;;;;;;;17.40;53.70;;;;;;7400182;19;1233;-75
2024/01/01 10:51:41;;;;;;;;;;;17.40;53.60;;;;;;7397474;19;3978;-74
2024/01/01 10:54:07;;;;;;;;;;;17.40;53.70;;;;;;7402055;19;3092;-75
2024/01/01 10:56:32;;;;;;;;;;;17.40;53.70;;;;;;7401008;19;1667;-75
2024/01/01 10:58:58;;;;;;;;;;;17.40;53.70;;;;;;7399763;19;4561;-75
2024/01/01 11:01:23;;;;;;;;;;;17.40;53.60;;;;;;7402551;19;1341;-74
2024/01/01 11:03:48;;;;;;;;;;;17.40;53.50;;;;;;7400682;19;2917;-75
2024/01/01 11:06:31;;;;;;;;;;;17.50;53.50;;;;;;7397608;19;3654;-75
2024/01/01 11:08:57;;;;;;;;;;;17.40;53.40;;;;;;7396914;19;1364;-75
2024/01/01 11:11:22;;;;;;;;;;;17.40;53.50;;;;;;7398604;19;2636;-75
2024/01/01 11:13:48;;;;;;;;;;;17.40;53.40;;;;;;7400134;19;3355;-75
2024/01/01 11:16:13;;;;;;;;;;;17.40;53.50;;;;;;7403441;19;1513;-74
2024/01/01 11:18:39;;;;;;;;;;;17.40;53.60;;;;;;7398649;19;1637;-74
2024/01/01 11:21:07;;;;;;;;;;;17.40;53.60;;;;;;7399657;19;4290;-75
2024/01/01 11:23:42;;;;;;;;;;;17.40;53.70;;;;;;7397050;19;4757;-75
2024/01/01 11:26:22;;;;;;;;;;;17.30;53.60;;;;;;7401852;19;1832;-75
2024/01/01 11:28:57;;;;;;;;;;;17.30;53.70;;;;;;7400239;19;2726;-75
2024/01/01 11:31:25;;;;;;;;;;;17.30;53.80;;;;;;7400805;19;1967;-75
2024/01/01 11:34:01;;;;;;;;;;;17.30;53.80;;;;;;7399550;19;1737;-75
2024/01/01 11:36:29;;;;;;;;;;;17.30;53.80;;;;;;7395493;19;5270;-75
2024/01/01 11:38:55;;;;;;;;;;;17.30;53.70;;;;;;7397786;19;1451;-75
2024/01/01 11:41:21;;;;;;;;;;;17.40;53.60;;;;;;7394945;19;4756;-75
2024/01/01 11:43:47;;;;;;;;;;;17.60;53.50;;;;;;7394900;19;4243;-75
2024/01/01 11:46:20;;;;;;;;;;;17.60;53.00;;;;;;7396129;19;4448;-74
2024/01/01 11:48:53;;;;;;;;;;;17.80;53.10;;;;;;7399336;19;3429;-75
2024/01/01 11:51:19;;;;;;;;;;;17.90;52.80;;;;;;7399733;19;3099;-75
2024/01/01 11:53:44;;;;;;;;;;;18.00;52.40;;;;;;7397672;19;4524;-75
2024/01/01 11:56:10;;;;;;;;;;;18.00;52.50;;;;;;7397799;19;3578;-75
2024/01/01 11:58:35;;;;;;;;;;;18.10;52.50;;;;;;7400032;19;3130;-75
2024/01/01 12:01:01;;;;;;;;;;;18.00;52.20;;;;;;7397186;19;3796;-75
2024/01/01 12:03:26;;;;;;;;;;;18.00;52.20;;;;;;7396283;19;3724;-74
2024/01/01 12:06:00;;;;;;;;;;;18.10;52.10;;;;;;7398183;19;3138;-75
2024/01/01 12:08:26;;;;;;;;;;;18.10;51.90;;;;;;7395171;19;2539;-75
2024/01/01 12:10:57;;;;;;;;;;;18.20;52.60;;;;;;7393615;19;5103;-75
2024/01/01 12:13:22;;;;;;;;;;;18.20;52.00;;;;;;7395970;19;4285;-74
2024/01/01 12:15:51;;;;;;;;;;;18.10;51.90;;;;;;7396925;19;4515;-75
2024/01/01 12:18:16;;;;;;;;;;;18.20;51.90;;;;;;7394963;19;4799;-75
2024/01/01 12:20:41;;;;;;;;;;;18.20;52.50;;;;;;7395645;19;4291;-75
2024/01/01 12:23:10;;;;;;;;;;;18.20;51.90;;;;;;7396541;19;3797;-74
2024/01/01 12:25:36;;;;;;;;;;;18.20;51.80;;;;;;7395644;19;3804;-75
2024/01/01 12:28:05;;;;;;;;;;;18.20;51.90;;;;;;7397952;19;1641;-75
2024/01/01 12:30:33;;;;;;;;;;;18.20;51.80;;;;;;7393243;19;4942;-75
2024/01/01 12:32:59;;;;;;;;;;;18.20;52.00;;;;;;7392203;19;3829;-75
2024/01/01 12:35:24;;;;;;;;;;;18.30;52.10;;;;;;7394407;19;3595;-75
2024/01/01 12:37:51;;;;;;;;;;;18.30;51.70;;;;;;7397060;19;2822;-74
2024/01/01 12:40:16;;;;;;;;;;;18.40;51.70;;;;;;7388795;19;3760;-75
2024/01/01 12:42:42;;;;;;;;;;;18.40;51.60;;;;;;7392295;19;3512;-75
2024/01/01 12:45:07;;;;;;;;;;;18.70;51.80;;;;;;7390799;19;4793;-75
2024/01/01 12:47:33;;;;;;;;;;;19.00;51.10;;;;;;7387519;19;3484;-74
2024/01/01 12:49:58;;;;;;;;;;;19.70;49.80;;;;;;7394481;19;4230;-75
2024/01/01 12:52:24;;;;;;;;;;;20.20;48.80;;;;;;7392680;19;1506;-74
2024/01/01 12:54:49;;;;;;;;;;;20.40;48.00;;;;;;7392748;19;3934;-74
2024/01/01 12:57:15;;;;;;;;;;;20.60;48.40;;;;;;7394366;19;1528;-73
2024/01/01 12:59:40;;;;;;;;;;;20.80;47.40;;;;;;7397091;19;1514;-74
2024/01/01 13:02:06;;;;;;;;;;;21.00;47.20;;;;;;7393846;19;4651;-73
2024/01/01 13:04:31;;;;;;;;;;;21.10;46.90;;;;;;7392249;19;1672;-73
2024/01/01 13:06:57;;;;;;;;;;;21.20;47.00;;;;;;7383487;19;4699;-74
2024/01/01 13:09:22;;;;;;;;;;;21.40;46.80;;;;;;7390776;19;2537;-74
2024/01/01 13:11:49;;;;;;;;;;;21.40;46.50;;;;;;7391265;19;1540;-74
2024/01/01 13:14:14;;;;;;;;;;;21.50;46.40;;;;;;7391726;19;1581;-74
2024/01/01 13:16:40;;;;;;;;;;;21.50;46.50;;;;;;7393066;19;1442;-74
2024/01/01 13:19:06;;;;;;;;;;;21.70;46.50;;;;;;7391493;19;1812;-74
2024/01/01 13:21:31;;;;;;;;;;;21.70;46.50;;;;;;7392858;19;1607;-74
2024/01/01 13:23:58;;;;;;;;;;;21.70;46.60;;;;;;7393253;19;4192;-74
2024/01/01 13:26:25;;;;;;;;;;;21.70;46.50;;;;;;7393708;19;2487;-74
2024/01/01 13:28:50;;;;;;;;;;;21.70;46.60;;;;;;7395047;19;2778;-74
2024/01/01 13:31:16;;;;;;;;;;;21.70;46.70;;;;;;7393917;19;1596;-74
2024/01/01 13:33:41;;;;;;;;;;;21.80;46.50;;;;;;7392080;19;1960;-73
2024/01/01 13:36:07;;;;;;;;;;;21.80;46.60;;;;;;7392248;19;4565;-74
2024/01/01 13:38:34;;;;;;;;;;;21.80;46.70;;;;;;7393323;19;4468;-74
2024/01/01 13:40:59;;;;;;;;;;;21.80;46.60;;;;;;7392313;19;4615;-74
2024/01/01 13:43:25;;;;;;;;;;;21.80;46.90;;;;;;7388864;19;3598;-74
2024/01/01 13:45:51;;;;;;;;;;;21.80;46.80;;;;;;7387477;19;4540;-74
2024/01/01 13:48:18;;;;;;;;;;;21.90;46.80;;;;;;7385693;19;2401;-75
2024/01/01 13:50:44;;;;;;;;;;;22.00;46.80;;;;;;7391667;19;2382;-75
2024/01/01 13:53:10;;;;;;;;;;;22.00;46.70;;;;;;7391185;19;2146;-76
2024/01/01 13:55:35;;;;;;;;;;;22.00;46.70;;;;;;7391365;19;1783;-75
2024/01/01 13:58:02;;;;;;;;;;;22.10;46.60;;;;;;7388396;19;2306;-74
2024/01/01 14:00:28;;;;;;;;;;;22.10;46.60;;;;;;7388020;19;1663;-74
2024/01/01 14:02:54;;;;;;;;;;;22.10;46.60;;;;;;7389892;19;2040;-75
2024/01/01 14:05:20;;;;;;;;;;;22.10;46.70;;;;;;7388322;19;2232;-75
2024/01/01 14:07:47;;;;;;;;;;;22.20;46.70;;;;;;7387259;19;1837;-75
2024/01/01 14:10:13;;;;;;;;;;;22.30;46.70;;;;;;7386319;19;2275;-75
2024/01/01 14:12:38;;;;;;;;;;;22.10;46.50;;;;;;7389076;19;1616;-74
2024/01/01 14:15:04;;;;;;;;;;;22.10;46.80;;;;;;7390472;19;1706;-74
2024/01/01 14:17:31;;;;;;;;;;;22.00;47.00;;;;;;7391787;19;4473;-74
2024/01/01 14:19:58;;;;;;;;;;;22.10;47.00;;;;;;7395684;19;3169;-74
2024/01/01 14:22:23;;;;;;;;;;;22.20;46.90;;;;;;7395557;19;1656;-74